CST,Max TemperatureF,Mean TemperatureF,Min TemperatureF,Max Dew PointF,MeanDew PointF,Min DewpointF,Max Humidity, Mean Humidity, Min Humidity, Max Sea Level PressureIn, Mean Sea Level PressureIn, Min Sea Level PressureIn, Max VisibilityMiles, Mean VisibilityMiles, Min VisibilityMiles, Max Wind SpeedMPH, Mean Wind SpeedMPH, Max Gust SpeedMPH,PrecipitationIn, CloudCover, Events, WindDirDegrees
2014-1-1,5,-6,-17,-5,-10,-17,78,70,62,30.55,30.48,30.46,10,10,10,9,6,13,0.00,8,,32
2014-1-2,6,-4,-15,-5,-10,-19,82,71,60,30.52,30.48,30.43,10,10,9,9,5,12,T,2,Snow,331
2014-1-3,24,2,-20,16,0,-25,81,71,61,30.44,29.92,29.52,10,10,10,24,11,31,0.00,6,,173
2014-1-4,31,17,3,27,11,-7,85,69,53,30.23,29.81,29.45,10,9,2,21,9,27,0.02,4,Snow,276
2014-1-5,4,-5,-15,-9,-18,-23,70,60,50,30.41,30.32,30.23,10,10,4,15,8,21,T,2,,308
2014-1-6,-13,-18,-23,-23,-28,-32,70,61,51,30.32,30.24,30.13,10,8,2,20,12,26,T,5,Snow,281
2014-1-7,0,-10,-21,-12,-19,-26,81,66,51,30.32,30.23,30.10,10,10,6,13,6,16,0.00,2,,248
2014-1-8,1,-7,-16,-11,-16,-21,91,74,57,30.57,30.46,30.33,10,10,7,7,3,,T,0,,249
2014-1-9,1,-9,-19,15,-3,-26,91,74,57,30.52,30.24,30.00,10,9,5,9,3,10,T,4,,144
2014-1-10,29,24,18,28,25,16,100,94,88,30.01,29.66,29.46,5,3,2,16,8,19,0.05,8,Snow,140
2014-1-11,31,27,22,27,25,21,100,89,78,29.71,29.55,29.44,10,6,2,17,8,23,0.01,7,Snow,264
2014-1-12,41,32,22,30,26,21,96,80,64,29.68,29.54,29.44,10,9,6,18,9,25,0.00,1,,187
2014-1-13,34,28,22,29,22,15,85,74,63,29.68,29.60,29.49,10,10,10,15,9,,T,3,,267
2014-1-14,26,16,6,24,17,-1,92,79,66,30.08,29.70,29.48,10,3,0,21,12,29,0.15,6,Fog-Snow,8
2014-1-15,21,8,-5,15,0,-8,87,78,69,30.15,29.91,29.46,10,8,2,17,9,21,0.01,5,Snow,230
2014-1-16,32,21,9,31,14,-1,92,76,59,29.80,29.52,29.33,10,8,2,28,12,37,0.01,8,Snow,265
2014-1-17,15,6,-3,5,1,-6,87,74,61,30.03,29.93,29.75,10,9,2,16,8,22,0.01,4,Snow,299
2014-1-18,19,9,-2,11,5,-4,83,75,67,29.96,29.82,29.68,10,7,2,15,8,20,0.08,6,Snow,99
2014-1-19,35,26,17,26,21,11,91,79,66,29.72,29.58,29.45,10,10,10,17,8,21,T,5,,273
2014-1-20,28,12,-4,22,6,-18,91,71,51,30.43,30.01,29.71,10,9,3,16,9,23,T,7,Rain-Snow,14
2014-1-21,1,-8,-18,-4,-13,-22,75,63,50,30.48,30.27,30.02,10,7,2,12,5,13,T,4,Snow,220
2014-1-22,6,1,-5,-1,-8,-16,87,69,51,30.43,30.08,29.91,10,7,2,23,12,30,0.03,6,Snow,301
2014-1-23,-5,-10,-15,-15,-18,-20,78,65,52,30.73,30.60,30.36,10,10,10,16,9,22,0.00,0,,268
2014-1-24,31,10,-11,27,14,-13,92,75,57,30.27,29.63,29.40,10,7,1,25,13,35,0.06,7,Snow,240
2014-1-25,25,13,1,5,-8,-12,62,52,42,29.86,29.74,29.51,10,8,2,26,13,36,0.01,2,Snow,278
2014-1-26,16,7,-3,7,-2,-15,86,72,58,30.00,29.55,29.34,10,4,1,30,13,38,0.13,8,Snow,290
2014-1-27,-3,-10,-17,-14,-23,-27,66,59,52,30.45,30.34,30.05,10,10,2,20,12,27,0.00,0,Snow,278
2014-1-28,-2,-11,-21,-13,-19,-25,78,67,56,30.43,30.29,30.15,10,8,2,20,10,23,0.00,1,,239
2014-1-29,30,10,-11,15,-2,-15,86,66,45,30.14,29.93,29.63,10,10,10,21,10,26,0.00,0,,196
2014-1-30,30,15,0,25,16,-9,100,79,57,30.04,29.60,29.48,10,5,0,18,9,26,0.31,5,Fog-Snow,278
2014-1-31,4,-5,-15,-8,-13,-18,86,71,56,30.24,30.15,30.06,10,10,3,13,6,19,0.00,0,Snow,247